sensor_id;sensor_type;location;lat;lon;timestamp;P1;durP1;ratioP1;P2;durP2;ratioP2
483;SDS011;228;48.922;12.198;2023-02-28T00:01:38;2.70;;;2.17;;
483;SDS011;228;48.922;12.198;2023-02-28T00:04:04;1.97;;;1.73;;
483;SDS011;228;48.922;12.198;2023-02-28T00:06:30;6.10;;;2.77;;
483;SDS011;228;48.922;12.198;2023-02-28T00:08:56;4.30;;;2.70;;
483;SDS011;228;48.922;12.198;2023-02-28T00:11:22;4.57;;;2.60;;
483;SDS011;228;48.922;12.198;2023-02-28T00:13:48;4.20;;;2.63;;
483;SDS011;228;48.922;12.198;2023-02-28T00:16:16;5.20;;;2.70;;
483;SDS011;228;48.922;12.198;2023-02-28T00:18:44;4.93;;;2.83;;
483;SDS011;228;48.922;12.198;2023-02-28T00:21:10;3.53;;;2.40;;
483;SDS011;228;48.922;12.198;2023-02-28T00:23:37;3.53;;;2.50;;
483;SDS011;228;48.922;12.198;2023-02-28T00:26:04;3.97;;;1.93;;
483;SDS011;228;48.922;12.198;2023-02-28T00:28:29;4.43;;;2.20;;
483;SDS011;228;48.922;12.198;2023-02-28T00:30:58;2.00;;;1.80;;
483;SDS011;228;48.922;12.198;2023-02-28T00:33:25;3.50;;;2.23;;
483;SDS011;228;48.922;12.198;2023-02-28T00:36:00;3.20;;;2.57;;
483;SDS011;228;48.922;12.198;2023-02-28T00:38:34;4.87;;;2.07;;
483;SDS011;228;48.922;12.198;2023-02-28T00:41:01;3.07;;;2.47;;
483;SDS011;228;48.922;12.198;2023-02-28T00:43:33;3.67;;;2.10;;
483;SDS011;228;48.922;12.198;2023-02-28T00:46:01;3.23;;;2.20;;
483;SDS011;228;48.922;12.198;2023-02-28T00:48:29;2.93;;;2.30;;
483;SDS011;228;48.922;12.198;2023-02-28T00:50:55;3.20;;;2.40;;
483;SDS011;228;48.922;12.198;2023-02-28T00:53:21;2.30;;;2.00;;
483;SDS011;228;48.922;12.198;2023-02-28T00:55:48;4.30;;;2.33;;
483;SDS011;228;48.922;12.198;2023-02-28T00:58:15;3.13;;;2.67;;
483;SDS011;228;48.922;12.198;2023-02-28T01:00:42;3.43;;;2.57;;
483;SDS011;228;48.922;12.198;2023-02-28T01:03:10;3.47;;;3.00;;
483;SDS011;228;48.922;12.198;2023-02-28T01:05:36;2.97;;;2.03;;
483;SDS011;228;48.922;12.198;2023-02-28T01:08:02;3.47;;;2.33;;
483;SDS011;228;48.922;12.198;2023-02-28T01:10:29;3.03;;;2.37;;
483;SDS011;228;48.922;12.198;2023-02-28T01:12:56;3.37;;;2.40;;
483;SDS011;228;48.922;12.198;2023-02-28T01:15:22;4.80;;;2.53;;
483;SDS011;228;48.922;12.198;2023-02-28T01:17:49;4.13;;;2.63;;
483;SDS011;228;48.922;12.198;2023-02-28T01:20:15;3.43;;;2.57;;
483;SDS011;228;48.922;12.198;2023-02-28T01:22:41;5.13;;;2.87;;
483;SDS011;228;48.922;12.198;2023-02-28T01:25:07;3.23;;;2.40;;
483;SDS011;228;48.922;12.198;2023-02-28T01:27:33;4.10;;;2.57;;
483;SDS011;228;48.922;12.198;2023-02-28T01:30:01;4.27;;;2.90;;
483;SDS011;228;48.922;12.198;2023-02-28T01:32:28;3.63;;;2.50;;
483;SDS011;228;48.922;12.198;2023-02-28T01:34:54;3.47;;;2.70;;
483;SDS011;228;48.922;12.198;2023-02-28T01:37:22;5.83;;;3.07;;
483;SDS011;228;48.922;12.198;2023-02-28T01:39:48;3.03;;;2.50;;
483;SDS011;228;48.922;12.198;2023-02-28T01:42:14;4.73;;;3.07;;
483;SDS011;228;48.922;12.198;2023-02-28T01:45:01;5.47;;;2.80;;
483;SDS011;228;48.922;12.198;2023-02-28T01:47:58;3.40;;;2.47;;
483;SDS011;228;48.922;12.198;2023-02-28T01:50:37;4.10;;;2.73;;
483;SDS011;228;48.922;12.198;2023-02-28T01:53:12;4.07;;;2.90;;
483;SDS011;228;48.922;12.198;2023-02-28T01:56:09;4.23;;;3.10;;
483;SDS011;228;48.922;12.198;2023-02-28T01:58:38;3.67;;;2.77;;
483;SDS011;228;48.922;12.198;2023-02-28T02:01:04;5.93;;;3.47;;
483;SDS011;228;48.922;12.198;2023-02-28T02:03:49;3.70;;;2.63;;
483;SDS011;228;48.922;12.198;2023-02-28T02:06:25;6.07;;;3.50;;
483;SDS011;228;48.922;12.198;2023-02-28T02:08:57;3.27;;;2.43;;
483;SDS011;228;48.922;12.198;2023-02-28T02:11:33;4.37;;;3.00;;
483;SDS011;228;48.922;12.198;2023-02-28T02:14:38;6.77;;;2.80;;
483;SDS011;228;48.922;12.198;2023-02-28T02:23:06;6.23;;;3.17;;
483;SDS011;228;48.922;12.198;2023-02-28T02:38:07;4.77;;;2.70;;
483;SDS011;228;48.922;12.198;2023-02-28T02:40:55;5.30;;;3.10;;
483;SDS011;228;48.922;12.198;2023-02-28T02:43:57;4.60;;;2.93;;
483;SDS011;228;48.922;12.198;2023-02-28T02:46:44;2.67;;;2.00;;
483;SDS011;228;48.922;12.198;2023-02-28T02:49:14;6.77;;;3.03;;
483;SDS011;228;48.922;12.198;2023-02-28T02:51:55;4.83;;;2.83;;
483;SDS011;228;48.922;12.198;2023-02-28T02:54:28;5.27;;;3.40;;
483;SDS011;228;48.922;12.198;2023-02-28T02:57:10;5.67;;;3.10;;
483;SDS011;228;48.922;12.198;2023-02-28T02:59:45;6.30;;;3.60;;
483;SDS011;228;48.922;12.198;2023-02-28T03:02:12;6.03;;;3.07;;
483;SDS011;228;48.922;12.198;2023-02-28T03:04:42;3.50;;;3.03;;
483;SDS011;228;48.922;12.198;2023-02-28T03:07:14;6.33;;;3.27;;
483;SDS011;228;48.922;12.198;2023-02-28T03:09:40;4.77;;;2.97;;
483;SDS011;228;48.922;12.198;2023-02-28T03:12:09;4.50;;;3.00;;
483;SDS011;228;48.922;12.198;2023-02-28T03:17:49;4.67;;;3.30;;
483;SDS011;228;48.922;12.198;2023-02-28T03:21:01;7.60;;;3.37;;
483;SDS011;228;48.922;12.198;2023-02-28T03:26:39;3.43;;;3.13;;
483;SDS011;228;48.922;12.198;2023-02-28T03:32:14;5.33;;;3.40;;
483;SDS011;228;48.922;12.198;2023-02-28T03:38:03;4.27;;;3.23;;
483;SDS011;228;48.922;12.198;2023-02-28T03:40:41;5.10;;;3.33;;
483;SDS011;228;48.922;12.198;2023-02-28T03:43:22;4.53;;;3.43;;
483;SDS011;228;48.922;12.198;2023-02-28T03:45:55;5.67;;;3.60;;
483;SDS011;228;48.922;12.198;2023-02-28T03:48:25;10.87;;;3.40;;
483;SDS011;228;48.922;12.198;2023-02-28T03:51:00;4.87;;;2.90;;
483;SDS011;228;48.922;12.198;2023-02-28T03:53:29;6.60;;;3.20;;
483;SDS011;228;48.922;12.198;2023-02-28T03:58:56;5.77;;;4.07;;
483;SDS011;228;48.922;12.198;2023-02-28T04:01:37;4.40;;;2.97;;
483;SDS011;228;48.922;12.198;2023-02-28T04:04:10;4.90;;;3.90;;
483;SDS011;228;48.922;12.198;2023-02-28T04:06:38;6.40;;;3.97;;
483;SDS011;228;48.922;12.198;2023-02-28T04:09:06;5.83;;;3.87;;
483;SDS011;228;48.922;12.198;2023-02-28T04:11:34;5.47;;;3.07;;
483;SDS011;228;48.922;12.198;2023-02-28T04:14:03;7.23;;;3.70;;
483;SDS011;228;48.922;12.198;2023-02-28T04:16:31;7.37;;;4.53;;
483;SDS011;228;48.922;12.198;2023-02-28T04:18:58;4.80;;;3.30;;
483;SDS011;228;48.922;12.198;2023-02-28T04:21:35;7.23;;;3.37;;
483;SDS011;228;48.922;12.198;2023-02-28T04:24:07;5.77;;;3.70;;
483;SDS011;228;48.922;12.198;2023-02-28T04:26:39;4.93;;;3.63;;
483;SDS011;228;48.922;12.198;2023-02-28T04:29:12;5.47;;;3.43;;
483;SDS011;228;48.922;12.198;2023-02-28T04:31:44;6.80;;;3.63;;
483;SDS011;228;48.922;12.198;2023-02-28T04:34:10;8.10;;;4.53;;
483;SDS011;228;48.922;12.198;2023-02-28T04:36:36;6.23;;;3.43;;
483;SDS011;228;48.922;12.198;2023-02-28T04:39:02;20.83;;;5.13;;
483;SDS011;228;48.922;12.198;2023-02-28T04:41:29;5.83;;;3.60;;
483;SDS011;228;48.922;12.198;2023-02-28T04:43:55;5.20;;;3.37;;
483;SDS011;228;48.922;12.198;2023-02-28T04:46:21;7.23;;;3.83;;
483;SDS011;228;48.922;12.198;2023-02-28T04:48:48;7.73;;;3.70;;
483;SDS011;228;48.922;12.198;2023-02-28T04:51:15;8.43;;;4.67;;
483;SDS011;228;48.922;12.198;2023-02-28T04:53:43;5.93;;;3.47;;
483;SDS011;228;48.922;12.198;2023-02-28T04:56:12;6.70;;;3.73;;
483;SDS011;228;48.922;12.198;2023-02-28T04:58:39;8.13;;;4.20;;
483;SDS011;228;48.922;12.198;2023-02-28T05:01:07;5.53;;;3.93;;
483;SDS011;228;48.922;12.198;2023-02-28T05:03:55;5.10;;;4.00;;
483;SDS011;228;48.922;12.198;2023-02-28T05:06:25;10.67;;;5.10;;
483;SDS011;228;48.922;12.198;2023-02-28T05:08:53;11.70;;;5.20;;
483;SDS011;228;48.922;12.198;2023-02-28T05:11:24;7.87;;;5.10;;
483;SDS011;228;48.922;12.198;2023-02-28T05:14:03;6.63;;;3.93;;
483;SDS011;228;48.922;12.198;2023-02-28T05:16:34;6.83;;;3.70;;
483;SDS011;228;48.922;12.198;2023-02-28T05:19:00;6.70;;;4.70;;
483;SDS011;228;48.922;12.198;2023-02-28T05:23:54;7.50;;;4.33;;
483;SDS011;228;48.922;12.198;2023-02-28T05:26:24;4.60;;;3.77;;
483;SDS011;228;48.922;12.198;2023-02-28T05:28:50;9.73;;;4.83;;
483;SDS011;228;48.922;12.198;2023-02-28T05:31:16;6.70;;;4.20;;
483;SDS011;228;48.922;12.198;2023-02-28T05:33:43;7.87;;;5.13;;
483;SDS011;228;48.922;12.198;2023-02-28T05:36:09;5.33;;;3.83;;
483;SDS011;228;48.922;12.198;2023-02-28T05:38:35;7.63;;;3.73;;
483;SDS011;228;48.922;12.198;2023-02-28T05:41:05;6.17;;;3.83;;
483;SDS011;228;48.922;12.198;2023-02-28T05:43:36;7.37;;;4.13;;
483;SDS011;228;48.922;12.198;2023-02-28T05:46:03;7.23;;;3.50;;
483;SDS011;228;48.922;12.198;2023-02-28T05:48:36;7.20;;;4.27;;
483;SDS011;228;48.922;12.198;2023-02-28T05:51:05;11.20;;;4.83;;
483;SDS011;228;48.922;12.198;2023-02-28T05:53:32;6.40;;;4.30;;
483;SDS011;228;48.922;12.198;2023-02-28T05:55:58;6.83;;;4.00;;
483;SDS011;228;48.922;12.198;2023-02-28T05:58:25;7.73;;;4.30;;
483;SDS011;228;48.922;12.198;2023-02-28T06:00:54;8.43;;;4.30;;
483;SDS011;228;48.922;12.198;2023-02-28T06:03:20;7.17;;;4.80;;
483;SDS011;228;48.922;12.198;2023-02-28T06:05:47;11.00;;;5.20;;
483;SDS011;228;48.922;12.198;2023-02-28T06:08:13;7.53;;;4.47;;
483;SDS011;228;48.922;12.198;2023-02-28T06:10:39;5.70;;;4.03;;
483;SDS011;228;48.922;12.198;2023-02-28T06:13:05;7.23;;;4.33;;
483;SDS011;228;48.922;12.198;2023-02-28T06:15:51;6.00;;;3.33;;
483;SDS011;228;48.922;12.198;2023-02-28T06:18:17;6.03;;;3.37;;
483;SDS011;228;48.922;12.198;2023-02-28T06:20:43;10.83;;;4.83;;
483;SDS011;228;48.922;12.198;2023-02-28T06:23:09;7.33;;;4.37;;
483;SDS011;228;48.922;12.198;2023-02-28T06:25:35;7.97;;;4.57;;
483;SDS011;228;48.922;12.198;2023-02-28T06:28:01;9.47;;;4.60;;
483;SDS011;228;48.922;12.198;2023-02-28T06:30:28;6.93;;;3.93;;
483;SDS011;228;48.922;12.198;2023-02-28T06:32:55;8.00;;;4.27;;
483;SDS011;228;48.922;12.198;2023-02-28T06:35:21;7.67;;;3.93;;
483;SDS011;228;48.922;12.198;2023-02-28T06:37:47;7.37;;;4.30;;
483;SDS011;228;48.922;12.198;2023-02-28T06:40:13;8.10;;;4.53;;
483;SDS011;228;48.922;12.198;2023-02-28T06:42:40;8.10;;;4.50;;
483;SDS011;228;48.922;12.198;2023-02-28T06:45:07;6.43;;;3.93;;
483;SDS011;228;48.922;12.198;2023-02-28T06:47:35;6.70;;;3.87;;
483;SDS011;228;48.922;12.198;2023-02-28T06:50:06;6.80;;;4.30;;
483;SDS011;228;48.922;12.198;2023-02-28T06:52:35;9.17;;;4.17;;
483;SDS011;228;48.922;12.198;2023-02-28T06:55:03;10.07;;;4.33;;
483;SDS011;228;48.922;12.198;2023-02-28T06:57:32;6.90;;;4.43;;
483;SDS011;228;48.922;12.198;2023-02-28T07:00:00;6.30;;;3.67;;
483;SDS011;228;48.922;12.198;2023-02-28T07:02:31;5.87;;;3.60;;
483;SDS011;228;48.922;12.198;2023-02-28T07:04:57;9.97;;;4.97;;
483;SDS011;228;48.922;12.198;2023-02-28T07:07:23;7.87;;;3.90;;
483;SDS011;228;48.922;12.198;2023-02-28T07:09:49;5.73;;;4.03;;
483;SDS011;228;48.922;12.198;2023-02-28T07:12:15;14.53;;;4.47;;
483;SDS011;228;48.922;12.198;2023-02-28T07:14:41;7.60;;;3.97;;
483;SDS011;228;48.922;12.198;2023-02-28T07:17:08;5.27;;;3.30;;
483;SDS011;228;48.922;12.198;2023-02-28T07:19:37;8.17;;;4.40;;
483;SDS011;228;48.922;12.198;2023-02-28T07:22:04;5.60;;;3.93;;
483;SDS011;228;48.922;12.198;2023-02-28T07:24:31;7.97;;;4.00;;
483;SDS011;228;48.922;12.198;2023-02-28T07:26:58;4.97;;;3.40;;
483;SDS011;228;48.922;12.198;2023-02-28T07:29:24;9.30;;;4.20;;
483;SDS011;228;48.922;12.198;2023-02-28T07:31:50;6.43;;;4.10;;
483;SDS011;228;48.922;12.198;2023-02-28T07:34:18;7.37;;;3.63;;
483;SDS011;228;48.922;12.198;2023-02-28T07:36:45;5.47;;;3.90;;
483;SDS011;228;48.922;12.198;2023-02-28T07:39:11;6.63;;;3.67;;
483;SDS011;228;48.922;12.198;2023-02-28T07:41:37;8.60;;;4.67;;
483;SDS011;228;48.922;12.198;2023-02-28T07:44:11;6.90;;;4.77;;
483;SDS011;228;48.922;12.198;2023-02-28T07:46:37;7.40;;;3.73;;
483;SDS011;228;48.922;12.198;2023-02-28T07:49:04;5.57;;;3.73;;
483;SDS011;228;48.922;12.198;2023-02-28T07:51:31;6.03;;;3.80;;
483;SDS011;228;48.922;12.198;2023-02-28T07:53:57;6.43;;;3.37;;
483;SDS011;228;48.922;12.198;2023-02-28T07:56:23;5.60;;;4.00;;
483;SDS011;228;48.922;12.198;2023-02-28T07:58:49;5.60;;;3.70;;
483;SDS011;228;48.922;12.198;2023-02-28T08:01:15;5.27;;;3.37;;
483;SDS011;228;48.922;12.198;2023-02-28T08:03:42;5.83;;;3.57;;
483;SDS011;228;48.922;12.198;2023-02-28T08:06:14;5.63;;;4.07;;
483;SDS011;228;48.922;12.198;2023-02-28T08:08:49;6.13;;;4.03;;
483;SDS011;228;48.922;12.198;2023-02-28T08:11:15;6.13;;;3.47;;
483;SDS011;228;48.922;12.198;2023-02-28T08:13:43;5.37;;;3.60;;
483;SDS011;228;48.922;12.198;2023-02-28T08:16:10;9.10;;;4.27;;
483;SDS011;228;48.922;12.198;2023-02-28T08:18:47;7.03;;;4.27;;
483;SDS011;228;48.922;12.198;2023-02-28T08:21:15;7.10;;;4.37;;
483;SDS011;228;48.922;12.198;2023-02-28T08:23:41;7.47;;;4.20;;
483;SDS011;228;48.922;12.198;2023-02-28T08:26:07;5.93;;;3.60;;
483;SDS011;228;48.922;12.198;2023-02-28T08:28:33;7.50;;;4.17;;
483;SDS011;228;48.922;12.198;2023-02-28T08:30:59;8.03;;;4.10;;
483;SDS011;228;48.922;12.198;2023-02-28T08:33:26;6.27;;;4.23;;
483;SDS011;228;48.922;12.198;2023-02-28T08:35:53;9.07;;;4.43;;
483;SDS011;228;48.922;12.198;2023-02-28T08:38:21;6.67;;;4.23;;
483;SDS011;228;48.922;12.198;2023-02-28T08:40:48;7.03;;;3.87;;
483;SDS011;228;48.922;12.198;2023-02-28T08:43:14;8.17;;;4.23;;
483;SDS011;228;48.922;12.198;2023-02-28T08:45:40;4.60;;;3.60;;
483;SDS011;228;48.922;12.198;2023-02-28T08:48:06;4.63;;;3.53;;
483;SDS011;228;48.922;12.198;2023-02-28T08:50:32;4.70;;;3.93;;
483;SDS011;228;48.922;12.198;2023-02-28T08:52:58;7.50;;;4.10;;
483;SDS011;228;48.922;12.198;2023-02-28T08:55:25;7.03;;;4.13;;
483;SDS011;228;48.922;12.198;2023-02-28T08:57:51;6.47;;;3.90;;
483;SDS011;228;48.922;12.198;2023-02-28T09:00:17;5.13;;;3.70;;
483;SDS011;228;48.922;12.198;2023-02-28T09:02:44;7.37;;;4.20;;
483;SDS011;228;48.922;12.198;2023-02-28T09:05:10;10.13;;;4.70;;
483;SDS011;228;48.922;12.198;2023-02-28T09:07:36;8.37;;;4.27;;
483;SDS011;228;48.922;12.198;2023-02-28T09:10:02;6.83;;;4.33;;
483;SDS011;228;48.922;12.198;2023-02-28T09:12:31;6.70;;;4.03;;
483;SDS011;228;48.922;12.198;2023-02-28T09:14:59;5.87;;;3.70;;
483;SDS011;228;48.922;12.198;2023-02-28T09:17:25;7.30;;;4.03;;
483;SDS011;228;48.922;12.198;2023-02-28T09:19:51;6.67;;;4.20;;
483;SDS011;228;48.922;12.198;2023-02-28T09:22:17;5.77;;;4.10;;
483;SDS011;228;48.922;12.198;2023-02-28T09:24:43;6.00;;;4.17;;
483;SDS011;228;48.922;12.198;2023-02-28T09:27:10;8.23;;;4.30;;
483;SDS011;228;48.922;12.198;2023-02-28T09:29:36;6.83;;;4.03;;
483;SDS011;228;48.922;12.198;2023-02-28T09:32:02;9.30;;;4.77;;
483;SDS011;228;48.922;12.198;2023-02-28T09:34:30;8.17;;;4.33;;
483;SDS011;228;48.922;12.198;2023-02-28T09:36:56;9.07;;;4.63;;
483;SDS011;228;48.922;12.198;2023-02-28T09:39:23;7.20;;;4.47;;
483;SDS011;228;48.922;12.198;2023-02-28T09:41:52;6.23;;;3.80;;
483;SDS011;228;48.922;12.198;2023-02-28T09:44:22;7.30;;;4.10;;
483;SDS011;228;48.922;12.198;2023-02-28T09:47:05;7.97;;;4.57;;
483;SDS011;228;48.922;12.198;2023-02-28T09:49:40;11.03;;;4.90;;
483;SDS011;228;48.922;12.198;2023-02-28T09:52:12;4.67;;;3.90;;
483;SDS011;228;48.922;12.198;2023-02-28T09:54:43;7.03;;;4.70;;
483;SDS011;228;48.922;12.198;2023-02-28T09:57:13;7.47;;;4.37;;
483;SDS011;228;48.922;12.198;2023-02-28T10:00:14;6.70;;;4.87;;
483;SDS011;228;48.922;12.198;2023-02-28T10:05:52;5.87;;;4.20;;
483;SDS011;228;48.922;12.198;2023-02-28T10:08:32;8.27;;;4.60;;
483;SDS011;228;48.922;12.198;2023-02-28T10:11:16;8.53;;;5.00;;
483;SDS011;228;48.922;12.198;2023-02-28T10:13:48;5.37;;;3.80;;
483;SDS011;228;48.922;12.198;2023-02-28T10:16:41;7.40;;;4.83;;
483;SDS011;228;48.922;12.198;2023-02-28T10:22:17;5.53;;;4.27;;
483;SDS011;228;48.922;12.198;2023-02-28T10:25:16;8.57;;;4.97;;
483;SDS011;228;48.922;12.198;2023-02-28T10:27:45;6.17;;;4.40;;
483;SDS011;228;48.922;12.198;2023-02-28T10:30:12;8.40;;;4.90;;
483;SDS011;228;48.922;12.198;2023-02-28T10:32:44;6.73;;;4.50;;
483;SDS011;228;48.922;12.198;2023-02-28T10:35:23;8.10;;;5.23;;
483;SDS011;228;48.922;12.198;2023-02-28T10:37:53;6.17;;;4.20;;
483;SDS011;228;48.922;12.198;2023-02-28T10:40:26;6.47;;;4.77;;
483;SDS011;228;48.922;12.198;2023-02-28T10:43:02;8.43;;;5.10;;
483;SDS011;228;48.922;12.198;2023-02-28T10:45:32;7.27;;;4.67;;
483;SDS011;228;48.922;12.198;2023-02-28T10:50:42;7.00;;;4.97;;
483;SDS011;228;48.922;12.198;2023-02-28T10:55:57;7.70;;;4.77;;
483;SDS011;228;48.922;12.198;2023-02-28T10:58:56;7.37;;;4.73;;
483;SDS011;228;48.922;12.198;2023-02-28T11:04:20;7.03;;;4.77;;
483;SDS011;228;48.922;12.198;2023-02-28T11:07:06;5.33;;;4.00;;
483;SDS011;228;48.922;12.198;2023-02-28T11:09:48;7.60;;;4.80;;
483;SDS011;228;48.922;12.198;2023-02-28T11:15:29;8.63;;;4.67;;
483;SDS011;228;48.922;12.198;2023-02-28T11:20:28;8.93;;;4.43;;
483;SDS011;228;48.922;12.198;2023-02-28T11:22:57;5.73;;;4.00;;
483;SDS011;228;48.922;12.198;2023-02-28T11:28:00;8.87;;;5.30;;
483;SDS011;228;48.922;12.198;2023-02-28T11:35:59;6.07;;;4.30;;
483;SDS011;228;48.922;12.198;2023-02-28T11:38:33;7.23;;;4.33;;
483;SDS011;228;48.922;12.198;2023-02-28T11:46:47;6.33;;;4.80;;
483;SDS011;228;48.922;12.198;2023-02-28T11:52:19;6.60;;;4.77;;
483;SDS011;228;48.922;12.198;2023-02-28T12:01:05;8.33;;;5.03;;
483;SDS011;228;48.922;12.198;2023-02-28T12:06:29;5.50;;;4.60;;
483;SDS011;228;48.922;12.198;2023-02-28T12:18:53;6.97;;;6.00;;
483;SDS011;228;48.922;12.198;2023-02-28T12:21:49;7.63;;;5.57;;
483;SDS011;228;48.922;12.198;2023-02-28T12:27:27;9.47;;;5.30;;
483;SDS011;228;48.922;12.198;2023-02-28T12:30:00;6.33;;;5.43;;
483;SDS011;228;48.922;12.198;2023-02-28T12:32:44;8.17;;;5.27;;
483;SDS011;228;48.922;12.198;2023-02-28T12:35:22;7.47;;;5.53;;
483;SDS011;228;48.922;12.198;2023-02-28T12:38:02;8.50;;;5.77;;
483;SDS011;228;48.922;12.198;2023-02-28T12:40:47;8.37;;;6.20;;
483;SDS011;228;48.922;12.198;2023-02-28T12:43:51;8.00;;;5.70;;
483;SDS011;228;48.922;12.198;2023-02-28T12:46:49;6.90;;;5.60;;
483;SDS011;228;48.922;12.198;2023-02-28T12:49:25;8.07;;;5.73;;
483;SDS011;228;48.922;12.198;2023-02-28T12:51:59;7.27;;;5.60;;
483;SDS011;228;48.922;12.198;2023-02-28T12:57:58;8.60;;;5.70;;
483;SDS011;228;48.922;12.198;2023-02-28T13:00:21;7.00;;;5.47;;
483;SDS011;228;48.922;12.198;2023-02-28T13:06:16;8.03;;;5.77;;
483;SDS011;228;48.922;12.198;2023-02-28T13:09:23;7.23;;;5.80;;
483;SDS011;228;48.922;12.198;2023-02-28T13:11:50;9.03;;;6.23;;
483;SDS011;228;48.922;12.198;2023-02-28T13:14:28;8.37;;;5.60;;
483;SDS011;228;48.922;12.198;2023-02-28T13:24:54;8.70;;;6.10;;
483;SDS011;228;48.922;12.198;2023-02-28T13:30:00;7.07;;;5.47;;
483;SDS011;228;48.922;12.198;2023-02-28T13:32:31;7.80;;;5.70;;
483;SDS011;228;48.922;12.198;2023-02-28T14:06:48;6.93;;;5.97;;
483;SDS011;228;48.922;12.198;2023-02-28T14:11:56;7.77;;;5.90;;
483;SDS011;228;48.922;12.198;2023-02-28T14:17:01;7.97;;;5.60;;
483;SDS011;228;48.922;12.198;2023-02-28T14:19:39;8.63;;;5.50;;
483;SDS011;228;48.922;12.198;2023-02-28T14:25:17;6.83;;;5.33;;
483;SDS011;228;48.922;12.198;2023-02-28T14:33:22;6.63;;;5.67;;
483;SDS011;228;48.922;12.198;2023-02-28T14:36:06;8.17;;;5.63;;
483;SDS011;228;48.922;12.198;2023-02-28T14:38:43;8.70;;;6.30;;
483;SDS011;228;48.922;12.198;2023-02-28T14:41:18;7.17;;;5.30;;
483;SDS011;228;48.922;12.198;2023-02-28T14:43:53;9.23;;;6.13;;
483;SDS011;228;48.922;12.198;2023-02-28T14:46:23;8.70;;;5.63;;
483;SDS011;228;48.922;12.198;2023-02-28T14:48:55;8.07;;;5.80;;
483;SDS011;228;48.922;12.198;2023-02-28T14:51:22;8.30;;;6.13;;
483;SDS011;228;48.922;12.198;2023-02-28T14:53:50;10.37;;;5.90;;
483;SDS011;228;48.922;12.198;2023-02-28T14:56:24;8.27;;;5.87;;
483;SDS011;228;48.922;12.198;2023-02-28T14:58:58;7.97;;;6.10;;
483;SDS011;228;48.922;12.198;2023-02-28T15:01:25;9.00;;;5.70;;
483;SDS011;228;48.922;12.198;2023-02-28T15:03:59;9.43;;;5.80;;
483;SDS011;228;48.922;12.198;2023-02-28T15:06:30;7.67;;;5.50;;
483;SDS011;228;48.922;12.198;2023-02-28T15:11:41;8.23;;;5.77;;
483;SDS011;228;48.922;12.198;2023-02-28T15:14:18;10.20;;;6.50;;
483;SDS011;228;48.922;12.198;2023-02-28T15:16:48;9.40;;;6.80;;
483;SDS011;228;48.922;12.198;2023-02-28T15:19:23;8.67;;;5.87;;
483;SDS011;228;48.922;12.198;2023-02-28T15:21:56;8.47;;;6.50;;
483;SDS011;228;48.922;12.198;2023-02-28T15:24:31;7.87;;;5.50;;
483;SDS011;228;48.922;12.198;2023-02-28T15:27:07;9.43;;;5.40;;
483;SDS011;228;48.922;12.198;2023-02-28T15:29:58;8.87;;;5.63;;
483;SDS011;228;48.922;12.198;2023-02-28T15:32:35;9.60;;;6.30;;
483;SDS011;228;48.922;12.198;2023-02-28T15:37:57;12.93;;;6.40;;
483;SDS011;228;48.922;12.198;2023-02-28T15:40:29;8.67;;;6.13;;
483;SDS011;228;48.922;12.198;2023-02-28T15:43:13;9.43;;;6.20;;
483;SDS011;228;48.922;12.198;2023-02-28T15:45:50;9.80;;;6.10;;
483;SDS011;228;48.922;12.198;2023-02-28T15:48:33;11.33;;;6.47;;
483;SDS011;228;48.922;12.198;2023-02-28T15:51:07;10.30;;;6.57;;
483;SDS011;228;48.922;12.198;2023-02-28T15:53:51;11.07;;;6.97;;
483;SDS011;228;48.922;12.198;2023-02-28T15:56:30;10.73;;;6.67;;
483;SDS011;228;48.922;12.198;2023-02-28T15:59:20;9.60;;;5.30;;
483;SDS011;228;48.922;12.198;2023-02-28T16:02:13;10.27;;;6.10;;
483;SDS011;228;48.922;12.198;2023-02-28T16:04:59;8.80;;;5.77;;
483;SDS011;228;48.922;12.198;2023-02-28T16:07:57;11.50;;;6.90;;
483;SDS011;228;48.922;12.198;2023-02-28T16:10:26;11.90;;;6.37;;
483;SDS011;228;48.922;12.198;2023-02-28T16:12:54;11.40;;;6.73;;
483;SDS011;228;48.922;12.198;2023-02-28T16:15:23;12.30;;;5.57;;
483;SDS011;228;48.922;12.198;2023-02-28T16:17:53;8.77;;;6.00;;
483;SDS011;228;48.922;12.198;2023-02-28T16:20:29;10.77;;;6.60;;
483;SDS011;228;48.922;12.198;2023-02-28T16:22:56;12.07;;;7.00;;
483;SDS011;228;48.922;12.198;2023-02-28T16:25:39;11.10;;;7.00;;
483;SDS011;228;48.922;12.198;2023-02-28T16:28:08;14.87;;;7.73;;
483;SDS011;228;48.922;12.198;2023-02-28T16:30:45;11.30;;;7.10;;
483;SDS011;228;48.922;12.198;2023-02-28T16:33:11;11.37;;;7.30;;
483;SDS011;228;48.922;12.198;2023-02-28T16:35:37;13.20;;;8.07;;
483;SDS011;228;48.922;12.198;2023-02-28T16:38:03;11.27;;;6.23;;
483;SDS011;228;48.922;12.198;2023-02-28T16:40:29;12.40;;;7.23;;
483;SDS011;228;48.922;12.198;2023-02-28T16:43:00;11.17;;;6.43;;
483;SDS011;228;48.922;12.198;2023-02-28T16:45:37;12.57;;;7.00;;
483;SDS011;228;48.922;12.198;2023-02-28T16:48:04;11.50;;;6.90;;
483;SDS011;228;48.922;12.198;2023-02-28T16:50:30;11.03;;;6.87;;
483;SDS011;228;48.922;12.198;2023-02-28T16:52:58;12.77;;;6.77;;
483;SDS011;228;48.922;12.198;2023-02-28T16:55:24;12.00;;;6.77;;
483;SDS011;228;48.922;12.198;2023-02-28T16:57:56;10.80;;;7.17;;
483;SDS011;228;48.922;12.198;2023-02-28T17:00:27;14.60;;;7.83;;
483;SDS011;228;48.922;12.198;2023-02-28T17:02:57;17.47;;;7.57;;
483;SDS011;228;48.922;12.198;2023-02-28T17:05:28;11.53;;;7.20;;
483;SDS011;228;48.922;12.198;2023-02-28T17:08:03;12.33;;;7.90;;
483;SDS011;228;48.922;12.198;2023-02-28T17:10:29;14.57;;;7.40;;
483;SDS011;228;48.922;12.198;2023-02-28T17:12:55;12.07;;;7.60;;
483;SDS011;228;48.922;12.198;2023-02-28T17:15:21;12.20;;;7.20;;
483;SDS011;228;48.922;12.198;2023-02-28T17:17:47;13.83;;;7.67;;
483;SDS011;228;48.922;12.198;2023-02-28T17:20:21;15.20;;;7.90;;
483;SDS011;228;48.922;12.198;2023-02-28T17:22:48;14.97;;;8.80;;
483;SDS011;228;48.922;12.198;2023-02-28T17:25:15;10.60;;;7.00;;
483;SDS011;228;48.922;12.198;2023-02-28T17:27:42;12.17;;;7.40;;
483;SDS011;228;48.922;12.198;2023-02-28T17:32:44;12.63;;;7.03;;
483;SDS011;228;48.922;12.198;2023-02-28T17:35:11;12.00;;;6.67;;
483;SDS011;228;48.922;12.198;2023-02-28T17:37:38;15.00;;;7.37;;
483;SDS011;228;48.922;12.198;2023-02-28T17:40:05;17.10;;;8.07;;
483;SDS011;228;48.922;12.198;2023-02-28T17:42:32;15.20;;;8.37;;
483;SDS011;228;48.922;12.198;2023-02-28T17:44:59;14.53;;;8.27;;
483;SDS011;228;48.922;12.198;2023-02-28T17:47:25;14.10;;;7.90;;
483;SDS011;228;48.922;12.198;2023-02-28T17:49:51;18.70;;;8.57;;
483;SDS011;228;48.922;12.198;2023-02-28T17:52:17;13.43;;;8.07;;
483;SDS011;228;48.922;12.198;2023-02-28T17:54:43;16.30;;;7.40;;
483;SDS011;228;48.922;12.198;2023-02-28T17:57:12;13.30;;;7.33;;
483;SDS011;228;48.922;12.198;2023-02-28T17:59:41;11.83;;;7.40;;
483;SDS011;228;48.922;12.198;2023-02-28T18:02:08;14.90;;;7.87;;
483;SDS011;228;48.922;12.198;2023-02-28T18:04:37;16.13;;;7.57;;
483;SDS011;228;48.922;12.198;2023-02-28T18:07:03;11.53;;;7.33;;
483;SDS011;228;48.922;12.198;2023-02-28T18:09:31;12.57;;;7.80;;
483;SDS011;228;48.922;12.198;2023-02-28T18:11:57;11.23;;;7.20;;
483;SDS011;228;48.922;12.198;2023-02-28T18:14:23;12.90;;;7.43;;
483;SDS011;228;48.922;12.198;2023-02-28T18:16:51;12.47;;;7.60;;
483;SDS011;228;48.922;12.198;2023-02-28T18:19:18;15.40;;;7.90;;
483;SDS011;228;48.922;12.198;2023-02-28T18:21:46;11.60;;;7.40;;
483;SDS011;228;48.922;12.198;2023-02-28T18:24:15;15.87;;;8.33;;
483;SDS011;228;48.922;12.198;2023-02-28T18:26:43;15.77;;;8.67;;
483;SDS011;228;48.922;12.198;2023-02-28T18:29:14;13.57;;;8.73;;
483;SDS011;228;48.922;12.198;2023-02-28T18:31:49;13.73;;;7.27;;
483;SDS011;228;48.922;12.198;2023-02-28T18:34:16;15.10;;;8.70;;
483;SDS011;228;48.922;12.198;2023-02-28T18:36:42;16.03;;;9.23;;
483;SDS011;228;48.922;12.198;2023-02-28T18:39:11;17.23;;;8.37;;